AUS weather

CLOSED Austin Robert Mueller Municipal
Texas, United States

Public forecast

Using degrees Fahrenheit for public forecast. Weather courtesy of forecast.io.

METAR (pilot weather report)

Closest report is Austin Bergstrom International Airport, 6.4 nm (11.9 km) SSE. Retrieved 2019/05/20 23:53 UTC (28 minutes ago):

KAUS 202353Z 16018G28KT 10SM FEW040 31/21 A2965 RMK AO2 PK WND 15029/2341 SLP027 T03060211 10333 20306 56023

TAF (pilot weather forecast)

Forecast is more than 12 hours old.

Closest forecast is Austin Bergstrom International Airport, 6.4 nm (11.9 km) SSE. Retrieved 2019/05/20 00:27 UTC (24 hours ago):

TAF KAUS 202324Z 2100/2206 16020G30KT P6SM SCT040 FM210500 16015G25KT P6SM BKN012 FM211300 16013KT P6SM VCTS BKN015CB FM211600 25008KT P6SM SCT025 BKN040 FM220000 17007KT P6SM SCT250